Portada
METAR-TAF:

METAR-TAF

Aeroports :

Aeroport de Bolonya

Bolonya, Itàlia

latitud: 44-32N, longitud: 011-18E, altitud: 36 m

Observació

L'informe es va fer fa 29 minuts, a les 23:50 UTC
Vent 7 kt del Sud/Sud-Oest
Temperatura 26°C
Humitat 65%
Pressió 1016 hPa
Visibilitat 10 km o més
sense núvols per sota de 1500 mi sense presència de cumulonimbus.

METAR: LIPE 182350Z 21007KT CAVOK 26/19 Q1016

Hora: 02:19 (00:19 UTC)

Pronòstic

L'informe es va fer fa 1 hora i 19 minuts, a les 23:00 UTC
Pronòstic vàlid del 19 a les 00 UTC al 19 a les 24 UTC
Vent 5 kt amb direcció variable
Visibilitat 10 km o més
sense núvols per sota de 1500 mi sense presència de cumulonimbus.
Temporalment
l' 19 a les 18 UTC al 19 a les 22 UTC
tempesta, pluja,

TAF: LIPE 182300Z 1900/1924 VRB05KT CAVOK TEMPO 1918/1922 TSRA

Observacions i pronòstics meteorològics de més de 4000 aeroports (METAR i TAF).

Les estacions disponibles són els punts grocs i vermells al mapa.

Posi el ratolí al punt desitjat per veure el nom de l'estació.

Feu clic per veure les observacions i els pronòstics meteorològics.

Per canviar el mapa: feu clic els botons verds amb una creu de color negre per apropar; al botó verd amb un guió per allunyar la imatge; o en les fletxes verdes per a mapes adjacents.


METAR-TAF: